Time;durP1;ratioP1;P1;durP2;ratioP2;P2;SDS_P1;SDS_P2;PMS_P1;PMS_P2;Temp;Humidity;BMP_temperature;BMP_pressure;BME280_temperature;BME280_humidity;BME280_pressure;Samples;Min_cycle;Max_cycle;Signal;HPM_P1;HPM_P2
2023/11/12 00:00:42;;;;;;;;;;;16.10;99.90;;;;;;5020885;28;20415;-70
2023/11/12 00:03:08;;;;;;;;;;;16.10;99.90;;;;;;5036591;28;19962;-78
2023/11/12 00:05:34;;;;;;;;;;;16.00;99.90;;;;;;5036267;28;19909;-70
2023/11/12 00:07:59;;;;;;;;;;;16.00;99.90;;;;;;5036370;28;19913;-70
2023/11/12 00:10:25;;;;;;;;;;;16.00;99.90;;;;;;5036195;28;19909;-71
2023/11/12 00:12:51;;;;;;;;;;;16.00;99.90;;;;;;5036162;28;19909;-78
2023/11/12 00:15:16;;;;;;;;;;;16.00;99.90;;;;;;5036035;28;20383;-77
2023/11/12 00:17:42;;;;;;;;;;;16.00;99.90;;;;;;5036463;28;19924;-71
2023/11/12 00:20:08;;;;;;;;;;;16.00;99.90;;;;;;5014845;28;19913;-70
2023/11/12 00:22:33;;;;;;;;;;;16.00;99.90;;;;;;5016379;28;19917;-70
2023/11/12 00:25:00;;;;;;;;;;;16.00;99.90;;;;;;5016370;28;19909;-77
2023/11/12 00:27:27;;;;;;;;;;;16.00;99.90;;;;;;5016105;28;20300;-70
2023/11/12 00:29:52;;;;;;;;;;;15.90;99.90;;;;;;5016062;28;20467;-71
2023/11/12 00:32:18;;;;;;;;;;;16.00;99.90;;;;;;5015691;28;19945;-70
2023/11/12 00:34:43;;;;;;;;;;;15.90;99.90;;;;;;5015225;28;19921;-70
2023/11/12 00:37:09;;;;;;;;;;;15.90;99.90;;;;;;5015979;28;19948;-70
2023/11/12 00:39:35;;;;;;;;;;;15.90;99.90;;;;;;5016141;28;19909;-78
2023/11/12 00:42:00;;;;;;;;;;;15.90;99.90;;;;;;5016000;28;19913;-78
2023/11/12 00:44:26;;;;;;;;;;;15.90;99.90;;;;;;5016119;28;19936;-70
2023/11/12 00:46:51;;;;;;;;;;;15.80;99.90;;;;;;5015834;28;19910;-78
2023/11/12 00:49:17;;;;;;;;;;;15.80;99.90;;;;;;5024436;28;19917;-70
2023/11/12 00:51:43;;;;;;;;;;;15.80;99.90;;;;;;5035603;28;19909;-78
2023/11/12 00:54:09;;;;;;;;;;;15.70;99.90;;;;;;5026884;28;19924;-78
2023/11/12 00:56:34;;;;;;;;;;;15.70;99.90;;;;;;5027326;28;19909;-71
2023/11/12 00:59:00;;;;;;;;;;;15.70;99.90;;;;;;5034747;28;20004;-70
2023/11/12 01:01:25;;;;;;;;;;;15.70;99.90;;;;;;5035323;28;19913;-70
2023/11/12 01:03:51;;;;;;;;;;;15.60;99.90;;;;;;5035346;28;20299;-78
2023/11/12 01:06:16;;;;;;;;;;;15.60;99.90;;;;;;5035160;28;19913;-78
2023/11/12 01:08:43;;;;;;;;;;;15.60;99.90;;;;;;5035225;28;19964;-70
2023/11/12 01:11:08;;;;;;;;;;;15.70;99.90;;;;;;5034778;28;19916;-70
2023/11/12 01:13:34;;;;;;;;;;;15.50;99.90;;;;;;5035152;28;19913;-70
2023/11/12 01:16:00;;;;;;;;;;;15.20;99.90;;;;;;5034944;28;19913;-71
2023/11/12 01:18:26;;;;;;;;;;;15.10;99.90;;;;;;5034966;28;19928;-79
2023/11/12 01:20:51;;;;;;;;;;;14.90;99.90;;;;;;5034452;28;19909;-79
2023/11/12 01:23:17;;;;;;;;;;;14.80;99.90;;;;;;5034989;28;19909;-70
2023/11/12 01:25:42;;;;;;;;;;;14.80;99.90;;;;;;5034918;28;20067;-70
2023/11/12 01:28:10;;;;;;;;;;;15.00;99.90;;;;;;5034650;28;20004;-70
2023/11/12 01:30:36;;;;;;;;;;;15.10;99.90;;;;;;5034871;28;19924;-78
2023/11/12 01:33:03;;;;;;;;;;;15.20;99.90;;;;;;5034903;28;20394;-78
2023/11/12 01:35:29;;;;;;;;;;;15.30;99.90;;;;;;5034488;28;20297;-69
2023/11/12 01:37:54;;;;;;;;;;;15.30;99.90;;;;;;5034601;28;20000;-69
2023/11/12 01:40:20;;;;;;;;;;;15.30;99.90;;;;;;5034697;28;19956;-70
2023/11/12 01:42:46;;;;;;;;;;;15.20;99.90;;;;;;5034523;28;19913;-77
2023/11/12 01:45:12;;;;;;;;;;;15.40;99.90;;;;;;5033829;28;20379;-77
2023/11/12 01:47:39;;;;;;;;;;;15.40;99.90;;;;;;5034447;28;19959;-70
2023/11/12 01:50:06;;;;;;;;;;;15.40;99.90;;;;;;5034431;28;19979;-70
2023/11/12 01:52:32;;;;;;;;;;;15.40;99.90;;;;;;5034410;28;20360;-70
2023/11/12 01:54:58;;;;;;;;;;;15.40;99.90;;;;;;5026323;28;19921;-70
2023/11/12 01:57:25;;;;;;;;;;;15.40;99.90;;;;;;5015787;28;19916;-77
2023/11/12 01:59:50;;;;;;;;;;;15.40;99.90;;;;;;5014227;28;20435;-78
2023/11/12 02:02:16;;;;;;;;;;;15.40;99.90;;;;;;5015497;28;20000;-78
2023/11/12 02:04:42;;;;;;;;;;;15.50;99.90;;;;;;5026109;28;19955;-70
2023/11/12 02:07:07;;;;;;;;;;;15.40;99.90;;;;;;5034228;28;19910;-70
2023/11/12 02:09:33;;;;;;;;;;;15.40;99.90;;;;;;5034057;28;19983;-70
2023/11/12 02:11:58;;;;;;;;;;;15.40;99.90;;;;;;5033520;28;20344;-78
2023/11/12 02:14:25;;;;;;;;;;;15.30;99.90;;;;;;5033687;28;19920;-69
2023/11/12 02:16:51;;;;;;;;;;;15.30;99.90;;;;;;5033981;28;19917;-70
2023/11/12 02:19:26;;;;;;;;;;;15.20;99.90;;;;;;5034163;28;19913;-69
2023/11/12 02:21:53;;;;;;;;;;;15.30;99.90;;;;;;5028025;28;19909;-78
2023/11/12 02:24:18;;;;;;;;;;;15.30;99.90;;;;;;5033858;28;19909;-78
2023/11/12 02:26:45;;;;;;;;;;;15.30;99.90;;;;;;5033970;28;20012;-69
2023/11/12 02:29:10;;;;;;;;;;;15.30;99.90;;;;;;5033721;28;19916;-70
2023/11/12 02:31:36;;;;;;;;;;;15.30;99.90;;;;;;5033652;28;19921;-70
2023/11/12 02:34:03;;;;;;;;;;;15.20;99.90;;;;;;5033409;28;19921;-70
2023/11/12 02:36:29;;;;;;;;;;;15.20;99.90;;;;;;5033524;28;19910;-78
2023/11/12 02:38:54;;;;;;;;;;;15.10;99.90;;;;;;5033560;28;20012;-78
2023/11/12 02:41:22;;;;;;;;;;;15.10;99.90;;;;;;5033734;28;19916;-70
2023/11/12 02:43:49;;;;;;;;;;;15.20;99.90;;;;;;5033434;28;20301;-69
2023/11/12 02:46:15;;;;;;;;;;;15.30;99.90;;;;;;5033293;28;20424;-69
2023/11/12 02:49:00;;;;;;;;;;;15.20;99.90;;;;;;5033496;28;19909;-78
2023/11/12 02:51:25;;;;;;;;;;;15.10;99.90;;;;;;5032850;28;19980;-77
2023/11/12 02:53:54;;;;;;;;;;;15.10;99.90;;;;;;5027420;28;19924;-69
2023/11/12 02:56:19;;;;;;;;;;;15.10;99.90;;;;;;5022033;28;19910;-78
2023/11/12 02:58:45;;;;;;;;;;;15.10;99.90;;;;;;5013463;28;19942;-70
2023/11/12 03:01:10;;;;;;;;;;;15.10;99.90;;;;;;5021339;28;20327;-78
2023/11/12 03:03:36;;;;;;;;;;;15.10;99.90;;;;;;5033289;28;19913;-77
2023/11/12 03:06:01;;;;;;;;;;;15.10;99.90;;;;;;5033045;28;20395;-78
2023/11/12 03:08:27;;;;;;;;;;;15.10;99.90;;;;;;5033293;28;19935;-69
2023/11/12 03:10:54;;;;;;;;;;;15.10;99.90;;;;;;5032601;28;19909;-69
2023/11/12 03:13:20;;;;;;;;;;;15.10;99.90;;;;;;5032510;28;19909;-70
2023/11/12 03:15:46;;;;;;;;;;;15.00;99.90;;;;;;5032795;28;19913;-77
2023/11/12 03:18:12;;;;;;;;;;;15.00;99.90;;;;;;5033623;28;19967;-78
2023/11/12 03:20:37;;;;;;;;;;;15.00;99.90;;;;;;5033046;28;19959;-70
2023/11/12 03:23:03;;;;;;;;;;;15.10;99.90;;;;;;5032917;28;19909;-70
2023/11/12 03:25:28;;;;;;;;;;;15.00;99.90;;;;;;5033204;28;19970;-69
2023/11/12 03:27:54;;;;;;;;;;;15.00;99.90;;;;;;5032920;28;19909;-77
2023/11/12 03:30:19;;;;;;;;;;;15.10;99.90;;;;;;5032857;28;19917;-77
2023/11/12 03:32:45;;;;;;;;;;;15.10;99.90;;;;;;5033108;28;19915;-70
2023/11/12 03:35:11;;;;;;;;;;;15.10;99.90;;;;;;5032185;28;20327;-70
2023/11/12 03:37:37;;;;;;;;;;;15.00;99.90;;;;;;5033011;28;19964;-70
2023/11/12 03:40:04;;;;;;;;;;;15.10;99.90;;;;;;5032768;28;19913;-78
2023/11/12 03:42:29;;;;;;;;;;;15.10;99.90;;;;;;5033034;28;19996;-78
2023/11/12 03:44:56;;;;;;;;;;;15.00;99.90;;;;;;5032814;28;19991;-77
2023/11/12 03:47:23;;;;;;;;;;;14.90;99.90;;;;;;5033042;28;19909;-69
2023/11/12 03:49:48;;;;;;;;;;;14.90;99.90;;;;;;5033015;28;19936;-78
2023/11/12 03:52:14;;;;;;;;;;;15.00;99.90;;;;;;5032811;28;19909;-70
2023/11/12 03:54:39;;;;;;;;;;;15.00;99.90;;;;;;5025193;28;19956;-70
2023/11/12 03:57:05;;;;;;;;;;;15.00;99.90;;;;;;5016780;28;19913;-77
2023/11/12 03:59:31;;;;;;;;;;;15.00;99.90;;;;;;5012937;28;19913;-69
2023/11/12 04:01:56;;;;;;;;;;;15.10;99.90;;;;;;5027194;28;19920;-69
2023/11/12 04:04:22;;;;;;;;;;;15.10;99.90;;;;;;5032791;28;19909;-70
2023/11/12 04:06:47;;;;;;;;;;;15.00;99.90;;;;;;5033534;28;20431;-77
2023/11/12 04:09:13;;;;;;;;;;;15.00;99.90;;;;;;5036352;28;19910;-77
2023/11/12 04:11:40;;;;;;;;;;;15.00;99.90;;;;;;5035866;28;19963;-70
2023/11/12 04:14:06;;;;;;;;;;;15.00;99.90;;;;;;5028622;28;19982;-77
2023/11/12 04:16:34;;;;;;;;;;;15.00;99.90;;;;;;5036189;28;20431;-70
2023/11/12 04:19:01;;;;;;;;;;;15.00;99.90;;;;;;5036440;28;19914;-77
2023/11/12 04:21:26;;;;;;;;;;;15.10;99.90;;;;;;5035970;28;20047;-70
2023/11/12 04:23:52;;;;;;;;;;;15.10;99.90;;;;;;5036033;28;19963;-70
2023/11/12 04:26:17;;;;;;;;;;;15.10;99.90;;;;;;5036394;28;19963;-70
2023/11/12 04:28:43;;;;;;;;;;;15.10;99.90;;;;;;5035898;28;20347;-70
2023/11/12 04:31:08;;;;;;;;;;;15.10;99.90;;;;;;5036214;28;19924;-69
2023/11/12 04:33:34;;;;;;;;;;;15.10;99.90;;;;;;5035705;28;19972;-77
2023/11/12 04:36:01;;;;;;;;;;;15.10;99.90;;;;;;5035831;28;20431;-77
2023/11/12 04:38:26;;;;;;;;;;;15.10;99.90;;;;;;5034432;28;19928;-70
2023/11/12 04:40:53;;;;;;;;;;;15.00;99.90;;;;;;5035856;28;19909;-70
2023/11/12 04:43:18;;;;;;;;;;;15.00;99.90;;;;;;5035950;28;19909;-70
2023/11/12 04:45:44;;;;;;;;;;;15.00;99.90;;;;;;5035748;28;19909;-76
2023/11/12 04:48:11;;;;;;;;;;;15.00;99.90;;;;;;5036012;28;20004;-77
2023/11/12 04:50:37;;;;;;;;;;;14.90;99.90;;;;;;5035423;28;19948;-69
2023/11/12 04:53:04;;;;;;;;;;;14.90;99.90;;;;;;5033766;28;19957;-69
2023/11/12 04:55:29;;;;;;;;;;;14.90;99.90;;;;;;5026931;28;19917;-69
2023/11/12 04:57:55;;;;;;;;;;;14.80;99.90;;;;;;5014946;28;19910;-75
2023/11/12 05:00:20;;;;;;;;;;;14.90;99.90;;;;;;5016601;28;19909;-76
2023/11/12 05:02:46;;;;;;;;;;;14.90;99.90;;;;;;5035597;28;19913;-69
2023/11/12 05:05:11;;;;;;;;;;;14.90;99.90;;;;;;5035288;28;19917;-70
2023/11/12 05:07:37;;;;;;;;;;;14.90;99.90;;;;;;5035495;28;19913;-69
2023/11/12 05:10:05;;;;;;;;;;;14.90;99.90;;;;;;5035180;28;20326;-69
2023/11/12 05:12:31;;;;;;;;;;;14.90;99.90;;;;;;5033689;28;19909;-76
2023/11/12 05:14:56;;;;;;;;;;;15.00;99.90;;;;;;5034969;28;19917;-76
2023/11/12 05:17:22;;;;;;;;;;;15.00;99.90;;;;;;5035349;28;20004;-69
2023/11/12 05:19:47;;;;;;;;;;;15.00;99.90;;;;;;5032118;28;19951;-69
2023/11/12 05:22:13;;;;;;;;;;;15.00;99.90;;;;;;5014732;28;19936;-77
2023/11/12 05:24:38;;;;;;;;;;;15.00;99.90;;;;;;5015164;28;19917;-77
2023/11/12 05:27:04;;;;;;;;;;;15.00;99.90;;;;;;5015119;28;19909;-77
2023/11/12 05:29:30;;;;;;;;;;;15.00;99.90;;;;;;5015178;28;20004;-69
2023/11/12 05:31:56;;;;;;;;;;;15.10;99.90;;;;;;5014715;28;19918;-69
2023/11/12 05:34:22;;;;;;;;;;;15.10;99.90;;;;;;5014290;28;19939;-69
2023/11/12 05:36:47;;;;;;;;;;;15.10;99.90;;;;;;5014883;28;19910;-76
2023/11/12 05:39:14;;;;;;;;;;;15.10;99.90;;;;;;5014615;28;19910;-75
2023/11/12 05:41:41;;;;;;;;;;;15.10;99.90;;;;;;5014867;28;19953;-70
2023/11/12 05:44:06;;;;;;;;;;;15.10;99.90;;;;;;5014751;28;19920;-76
2023/11/12 05:46:32;;;;;;;;;;;15.10;99.90;;;;;;5014814;28;19910;-69
2023/11/12 05:48:58;;;;;;;;;;;15.00;99.90;;;;;;5013962;28;20388;-69
2023/11/12 05:51:23;;;;;;;;;;;15.00;99.90;;;;;;5014685;28;19996;-69
2023/11/12 05:53:49;;;;;;;;;;;15.00;99.90;;;;;;5018002;28;19917;-69
2023/11/12 05:56:14;;;;;;;;;;;15.10;99.90;;;;;;5027596;28;19999;-69
2023/11/12 05:58:39;;;;;;;;;;;15.10;99.90;;;;;;5034330;28;20008;-71
2023/11/12 06:01:05;;;;;;;;;;;15.10;99.90;;;;;;5027055;28;19909;-70
2023/11/12 06:03:30;;;;;;;;;;;15.10;99.90;;;;;;5014478;28;20328;-76
2023/11/12 06:05:56;;;;;;;;;;;15.10;99.90;;;;;;5014396;28;19914;-75
2023/11/12 06:08:22;;;;;;;;;;;15.10;99.90;;;;;;5014400;28;19957;-70
2023/11/12 06:10:48;;;;;;;;;;;15.10;99.90;;;;;;5016329;28;19917;-70
2023/11/12 06:13:14;;;;;;;;;;;15.20;99.90;;;;;;5027342;28;19975;-69
2023/11/12 06:15:40;;;;;;;;;;;15.20;99.90;;;;;;5032923;28;19909;-75
2023/11/12 06:18:08;;;;;;;;;;;15.10;99.90;;;;;;5033699;28;20455;-76
2023/11/12 06:20:33;;;;;;;;;;;15.10;99.90;;;;;;5022500;28;19913;-76
2023/11/12 06:22:59;;;;;;;;;;;15.10;99.90;;;;;;5018917;28;19919;-69
2023/11/12 06:25:25;;;;;;;;;;;15.00;99.90;;;;;;5014231;28;19910;-70
2023/11/12 06:27:53;;;;;;;;;;;15.00;99.90;;;;;;5013941;28;19945;-70
2023/11/12 06:30:18;;;;;;;;;;;15.10;99.90;;;;;;5013363;28;20442;-76
2023/11/12 06:32:46;;;;;;;;;;;15.20;99.90;;;;;;5014100;28;19914;-70
2023/11/12 06:35:12;;;;;;;;;;;15.10;99.90;;;;;;5013933;28;19921;-69
2023/11/12 06:37:38;;;;;;;;;;;15.10;99.90;;;;;;5014033;28;19909;-70
2023/11/12 06:40:03;;;;;;;;;;;15.10;99.90;;;;;;5013851;28;19913;-70
2023/11/12 06:42:31;;;;;;;;;;;15.10;99.90;;;;;;5013856;28;19909;-70
2023/11/12 06:44:56;;;;;;;;;;;15.10;99.90;;;;;;5013954;28;20273;-77
2023/11/12 06:47:22;;;;;;;;;;;15.20;99.90;;;;;;5013849;28;19917;-70
2023/11/12 06:49:47;;;;;;;;;;;15.20;99.90;;;;;;5013571;28;19909;-69
2023/11/12 06:52:14;;;;;;;;;;;15.20;99.90;;;;;;5013626;28;19916;-69
2023/11/12 06:54:40;;;;;;;;;;;15.20;99.90;;;;;;5021132;28;20296;-70
2023/11/12 06:57:06;;;;;;;;;;;15.20;99.90;;;;;;5017415;28;20384;-76
2023/11/12 06:59:31;;;;;;;;;;;15.30;99.90;;;;;;5013743;28;19941;-76
2023/11/12 07:01:57;;;;;;;;;;;15.30;99.90;;;;;;5027840;28;20372;-69
2023/11/12 07:04:22;;;;;;;;;;;15.30;99.90;;;;;;5033478;28;20257;-69
2023/11/12 07:06:48;;;;;;;;;;;15.30;99.90;;;;;;5033140;28;19909;-70
2023/11/12 07:09:13;;;;;;;;;;;15.30;99.90;;;;;;5033184;28;19921;-76
2023/11/12 07:11:39;;;;;;;;;;;15.30;99.90;;;;;;5032627;28;19995;-69
2023/11/12 07:14:05;;;;;;;;;;;15.30;99.90;;;;;;5033177;28;19913;-70
2023/11/12 07:16:30;;;;;;;;;;;15.30;99.90;;;;;;5033321;28;19909;-69
2023/11/12 07:18:56;;;;;;;;;;;15.30;99.90;;;;;;5033573;28;19917;-70
2023/11/12 07:21:28;;;;;;;;;;;15.30;99.90;;;;;;5031260;28;19956;-69
2023/11/12 07:23:54;;;;;;;;;;;15.30;99.90;;;;;;5014305;28;19910;-77
2023/11/12 07:26:20;;;;;;;;;;;15.30;99.90;;;;;;5013415;28;19917;-69
2023/11/12 07:28:46;;;;;;;;;;;15.30;99.90;;;;;;5013366;28;19909;-69
2023/11/12 07:31:12;;;;;;;;;;;15.30;99.90;;;;;;5013182;28;20292;-70
2023/11/12 07:33:38;;;;;;;;;;;15.30;99.90;;;;;;5013318;28;19924;-69
2023/11/12 07:36:07;;;;;;;;;;;15.30;99.90;;;;;;5013058;28;19914;-76
2023/11/12 07:38:32;;;;;;;;;;;15.30;99.90;;;;;;5013271;28;19916;-76
2023/11/12 07:40:58;;;;;;;;;;;15.30;99.90;;;;;;5013256;28;19909;-69
2023/11/12 07:43:25;;;;;;;;;;;15.30;99.90;;;;;;5016512;28;19916;-70
2023/11/12 07:45:50;;;;;;;;;;;15.30;99.90;;;;;;5017061;28;19945;-70
2023/11/12 07:48:16;;;;;;;;;;;15.30;99.90;;;;;;5016885;28;20316;-76
2023/11/12 07:50:41;;;;;;;;;;;15.30;99.90;;;;;;5017167;28;19951;-76
2023/11/12 07:53:07;;;;;;;;;;;15.30;99.90;;;;;;5016475;28;20008;-70
2023/11/12 07:55:32;;;;;;;;;;;15.30;99.90;;;;;;5025015;28;19917;-70
2023/11/12 07:57:59;;;;;;;;;;;15.40;99.90;;;;;;5036566;28;19939;-70
2023/11/12 08:00:25;;;;;;;;;;;15.40;99.90;;;;;;5036626;28;19913;-70
2023/11/12 08:02:51;;;;;;;;;;;15.40;99.90;;;;;;5036715;28;19963;-70
2023/11/12 08:05:18;;;;;;;;;;;15.50;99.90;;;;;;5019433;28;20372;-69
2023/11/12 08:07:44;;;;;;;;;;;15.50;99.90;;;;;;5016467;28;20000;-70
2023/11/12 08:10:10;;;;;;;;;;;15.50;99.90;;;;;;5022193;28;19913;-70
2023/11/12 08:12:39;;;;;;;;;;;15.60;99.90;;;;;;5035087;28;19916;-70
2023/11/12 08:15:06;;;;;;;;;;;15.60;99.90;;;;;;5036167;28;19920;-76
2023/11/12 08:17:32;;;;;;;;;;;15.60;99.90;;;;;;5036608;28;19952;-76
2023/11/12 08:19:57;;;;;;;;;;;15.60;99.90;;;;;;5034883;28;19913;-76
2023/11/12 08:22:23;;;;;;;;;;;15.60;99.90;;;;;;5015522;28;19937;-69
2023/11/12 08:24:48;;;;;;;;;;;15.60;99.90;;;;;;5016238;28;19960;-70
2023/11/12 08:27:14;;;;;;;;;;;15.60;99.90;;;;;;5016308;28;19952;-76
2023/11/12 08:29:40;;;;;;;;;;;15.60;99.90;;;;;;5016379;28;20395;-75
2023/11/12 08:32:06;;;;;;;;;;;15.50;99.90;;;;;;5016018;28;19918;-70
2023/11/12 08:34:32;;;;;;;;;;;15.50;99.90;;;;;;5016052;28;20055;-70
2023/11/12 08:36:57;;;;;;;;;;;15.60;99.90;;;;;;5015939;28;20384;-70
2023/11/12 08:39:24;;;;;;;;;;;15.70;99.90;;;;;;5016124;28;19949;-76
2023/11/12 08:41:49;;;;;;;;;;;15.80;99.90;;;;;;5016140;28;19997;-76
2023/11/12 08:44:15;;;;;;;;;;;15.90;99.90;;;;;;5016074;28;19980;-70
2023/11/12 08:46:41;;;;;;;;;;;15.90;99.90;;;;;;5016131;28;19917;-70
2023/11/12 08:49:07;;;;;;;;;;;15.90;99.90;;;;;;5015637;28;20269;-70
2023/11/12 08:51:33;;;;;;;;;;;15.90;99.90;;;;;;5016025;28;19913;-69
2023/11/12 08:53:58;;;;;;;;;;;15.90;99.90;;;;;;5018666;28;19917;-76
2023/11/12 08:56:25;;;;;;;;;;;15.90;99.90;;;;;;5024388;28;19909;-76
2023/11/12 08:58:51;;;;;;;;;;;15.90;99.90;;;;;;5015626;28;19918;-70
2023/11/12 09:01:17;;;;;;;;;;;15.90;99.90;;;;;;5024383;28;19917;-70
2023/11/12 09:03:42;;;;;;;;;;;15.90;99.90;;;;;;5035501;28;19916;-70
2023/11/12 09:06:08;;;;;;;;;;;15.80;99.90;;;;;;5035501;28;20020;-76
2023/11/12 09:08:33;;;;;;;;;;;15.90;99.90;;;;;;5035208;28;19915;-77
2023/11/12 09:10:59;;;;;;;;;;;15.90;99.90;;;;;;5035637;28;20391;-70
2023/11/12 09:13:25;;;;;;;;;;;15.90;99.90;;;;;;5034331;28;19963;-75
2023/11/12 09:15:50;;;;;;;;;;;16.00;99.90;;;;;;5035370;28;19915;-70
2023/11/12 09:18:16;;;;;;;;;;;15.90;99.90;;;;;;5035479;28;20412;-70
2023/11/12 09:20:43;;;;;;;;;;;16.00;99.90;;;;;;5035097;28;19909;-76
2023/11/12 09:23:08;;;;;;;;;;;15.90;99.90;;;;;;5034961;28;19909;-70
2023/11/12 09:25:34;;;;;;;;;;;15.90;99.90;;;;;;5034814;28;20283;-70
2023/11/12 09:28:01;;;;;;;;;;;15.90;99.90;;;;;;5034905;28;19913;-70
2023/11/12 09:30:31;;;;;;;;;;;15.90;99.90;;;;;;5034950;28;19928;-70
2023/11/12 09:32:56;;;;;;;;;;;15.90;99.90;;;;;;5034826;28;20508;-76
2023/11/12 09:35:23;;;;;;;;;;;16.00;99.90;;;;;;5034963;28;20019;-76
2023/11/12 09:37:50;;;;;;;;;;;16.00;99.90;;;;;;5034626;28;19909;-70
2023/11/12 09:40:16;;;;;;;;;;;16.10;99.90;;;;;;5034556;28;19924;-70
2023/11/12 09:42:47;;;;;;;;;;;16.10;99.90;;;;;;5034581;28;19909;-77
2023/11/12 09:45:14;;;;;;;;;;;16.00;99.90;;;;;;5034610;28;20284;-76
2023/11/12 09:47:40;;;;;;;;;;;16.00;99.90;;;;;;5034646;28;19909;-76
2023/11/12 09:50:07;;;;;;;;;;;15.90;99.90;;;;;;5034565;28;19916;-71
2023/11/12 09:52:32;;;;;;;;;;;15.80;99.90;;;;;;5027174;28;19913;-70
2023/11/12 09:55:00;;;;;;;;;;;15.90;99.90;;;;;;5024038;28;20015;-70
2023/11/12 09:57:26;;;;;;;;;;;15.90;99.90;;;;;;5016253;28;19914;-76
2023/11/12 09:59:52;;;;;;;;;;;16.00;99.90;;;;;;5014420;28;19932;-70
2023/11/12 10:02:18;;;;;;;;;;;16.10;99.90;;;;;;5031468;28;19970;-70
2023/11/12 10:04:44;;;;;;;;;;;16.20;99.90;;;;;;5033421;28;20437;-70
2023/11/12 10:07:10;;;;;;;;;;;16.20;99.90;;;;;;5034188;28;19999;-70
2023/11/12 10:09:37;;;;;;;;;;;16.10;99.90;;;;;;5034154;28;19916;-71
2023/11/12 10:12:08;;;;;;;;;;;16.20;99.90;;;;;;5033625;28;19913;-76
2023/11/12 10:14:34;;;;;;;;;;;16.20;99.90;;;;;;5033972;28;20372;-76
2023/11/12 10:17:05;;;;;;;;;;;16.20;99.90;;;;;;5034197;28;20391;-70
2023/11/12 10:19:30;;;;;;;;;;;16.10;99.90;;;;;;5034038;28;19921;-70
2023/11/12 10:21:58;;;;;;;;;;;16.00;99.90;;;;;;5033387;28;20107;-70
2023/11/12 10:24:24;;;;;;;;;;;16.10;99.90;;;;;;5033902;28;19913;-77
2023/11/12 10:26:50;;;;;;;;;;;16.10;99.90;;;;;;5034262;28;19917;-77
2023/11/12 10:29:19;;;;;;;;;;;16.10;99.90;;;;;;5033655;28;19909;-76
2023/11/12 10:31:45;;;;;;;;;;;16.10;99.90;;;;;;5033700;28;20011;-71
2023/11/12 10:34:11;;;;;;;;;;;16.10;99.90;;;;;;5033281;28;20016;-70
2023/11/12 10:36:36;;;;;;;;;;;16.10;99.90;;;;;;5027493;28;20004;-70
2023/11/12 10:39:11;;;;;;;;;;;16.10;99.90;;;;;;5018526;28;20388;-76
2023/11/12 10:41:36;;;;;;;;;;;16.10;99.90;;;;;;5013847;28;20400;-70
2023/11/12 10:44:02;;;;;;;;;;;16.10;99.90;;;;;;5013785;28;19960;-69
2023/11/12 10:46:28;;;;;;;;;;;16.10;99.90;;;;;;5014046;28;20292;-77
2023/11/12 10:48:55;;;;;;;;;;;16.00;99.90;;;;;;5013703;28;19910;-77
2023/11/12 10:51:21;;;;;;;;;;;16.00;99.90;;;;;;5028908;28;19916;-77
2023/11/12 10:53:48;;;;;;;;;;;16.10;99.90;;;;;;5016827;28;19932;-69
2023/11/12 10:56:15;;;;;;;;;;;16.00;99.90;;;;;;5022523;28;20299;-76
2023/11/12 10:58:42;;;;;;;;;;;16.00;99.90;;;;;;5014332;28;19914;-70
2023/11/12 11:01:08;;;;;;;;;;;16.00;99.90;;;;;;5025430;28;19914;-70
2023/11/12 11:03:34;;;;;;;;;;;15.90;99.90;;;;;;5012391;28;20284;-77
2023/11/12 11:06:02;;;;;;;;;;;15.80;99.90;;;;;;5013622;28;19921;-77
2023/11/12 11:08:30;;;;;;;;;;;15.80;99.90;;;;;;5013518;28;19909;-71
2023/11/12 11:10:57;;;;;;;;;;;15.80;99.90;;;;;;5013475;28;19917;-70
2023/11/12 11:13:25;;;;;;;;;;;15.70;99.90;;;;;;5031925;28;19909;-72
2023/11/12 11:15:58;;;;;;;;;;;15.70;99.90;;;;;;5034777;28;19913;-80
2023/11/12 11:18:32;;;;;;;;;;;15.70;99.90;;;;;;5037139;28;19917;-71
2023/11/12 11:21:10;;;;;;;;;;;15.60;99.90;;;;;;5024357;28;20290;-71
2023/11/12 11:23:44;;;;;;;;;;;15.60;99.90;;;;;;5039499;28;19959;-71
2023/11/12 11:26:29;;;;;;;;;;;15.60;99.90;;;;;;5038437;28;20301;-71
2023/11/12 11:29:04;;;;;;;;;;;15.60;99.90;;;;;;5039981;28;19916;-70
2023/11/12 11:31:32;;;;;;;;;;;15.70;99.90;;;;;;5039642;28;20006;-78
2023/11/12 11:33:58;;;;;;;;;;;15.70;99.90;;;;;;5039645;28;19924;-80
2023/11/12 11:36:24;;;;;;;;;;;15.70;99.90;;;;;;5039794;28;19909;-70
2023/11/12 11:39:17;;;;;;;;;;;15.70;99.90;;;;;;5039662;28;19915;-78
2023/11/12 11:41:45;;;;;;;;;;;15.70;99.90;;;;;;5035899;28;19909;-78
2023/11/12 11:44:29;;;;;;;;;;;15.60;99.90;;;;;;5020423;28;20008;-78
2023/11/12 11:47:12;;;;;;;;;;;15.60;99.90;;;;;;5020200;28;20287;-71
2023/11/12 11:49:38;;;;;;;;;;;15.60;99.90;;;;;;5019708;28;19914;-71
2023/11/12 11:52:06;;;;;;;;;;;15.70;99.90;;;;;;5019598;28;20315;-79
2023/11/12 11:54:32;;;;;;;;;;;15.60;99.90;;;;;;5025010;28;19929;-79
2023/11/12 11:56:58;;;;;;;;;;;15.70;99.90;;;;;;5026201;28;19910;-78
2023/11/12 11:59:24;;;;;;;;;;;15.70;99.90;;;;;;5018565;28;20284;-78
2023/11/12 12:01:50;;;;;;;;;;;15.80;99.90;;;;;;5032765;28;19909;-71
2023/11/12 12:04:17;;;;;;;;;;;15.90;99.90;;;;;;5039610;28;19909;-71
2023/11/12 12:06:46;;;;;;;;;;;16.10;99.90;;;;;;5039295;28;20338;-71
2023/11/12 12:09:18;;;;;;;;;;;16.10;99.90;;;;;;5039276;28;19909;-80
2023/11/12 12:11:48;;;;;;;;;;;16.10;99.90;;;;;;5039033;28;20330;-80
2023/11/12 12:14:14;;;;;;;;;;;16.20;99.90;;;;;;5039106;28;19913;-71
2023/11/12 12:16:40;;;;;;;;;;;16.20;99.90;;;;;;5039469;28;19916;-71
2023/11/12 12:19:08;;;;;;;;;;;16.20;99.90;;;;;;5039626;28;19913;-71
2023/11/12 12:21:36;;;;;;;;;;;16.20;99.90;;;;;;5018570;28;19909;-79
2023/11/12 12:24:02;;;;;;;;;;;16.20;99.90;;;;;;5019226;28;20381;-79
2023/11/12 12:26:27;;;;;;;;;;;16.20;99.90;;;;;;5019440;28;19913;-70
2023/11/12 12:28:53;;;;;;;;;;;16.10;99.90;;;;;;5016120;28;19917;-79
2023/11/12 12:31:18;;;;;;;;;;;15.90;99.90;;;;;;5016208;28;19917;-70
2023/11/12 12:34:00;;;;;;;;;;;15.90;99.90;;;;;;5015976;28;19921;-79
2023/11/12 12:36:25;;;;;;;;;;;15.90;99.90;;;;;;5016382;28;20327;-79
2023/11/12 12:39:00;;;;;;;;;;;16.00;99.90;;;;;;5016064;28;19910;-80
2023/11/12 12:41:26;;;;;;;;;;;16.10;99.90;;;;;;5016195;28;19909;-71
2023/11/12 12:43:54;;;;;;;;;;;16.20;99.90;;;;;;5015971;28;20364;-80
2023/11/12 12:46:20;;;;;;;;;;;16.30;99.90;;;;;;5015894;28;19981;-80
2023/11/12 12:48:52;;;;;;;;;;;16.40;99.90;;;;;;5015935;28;20411;-80
2023/11/12 12:51:19;;;;;;;;;;;16.50;99.90;;;;;;5016176;28;19909;-70
2023/11/12 12:53:45;;;;;;;;;;;16.50;99.90;;;;;;5018997;28;19921;-71
2023/11/12 12:56:13;;;;;;;;;;;16.50;99.90;;;;;;5024774;28;20319;-71
2023/11/12 12:58:39;;;;;;;;;;;16.50;99.90;;;;;;5023731;28;19959;-71
2023/11/12 13:01:05;;;;;;;;;;;16.60;99.90;;;;;;5028168;28;19932;-71
2023/11/12 13:03:31;;;;;;;;;;;16.60;99.90;;;;;;5015974;28;19909;-79
2023/11/12 13:05:57;;;;;;;;;;;16.60;99.90;;;;;;5015558;28;20360;-79
2023/11/12 13:08:23;;;;;;;;;;;16.70;99.90;;;;;;5015366;28;20008;-72
2023/11/12 13:10:49;;;;;;;;;;;16.60;99.90;;;;;;5015441;28;19952;-71
2023/11/12 13:13:19;;;;;;;;;;;16.70;99.90;;;;;;5033047;28;19917;-79
2023/11/12 13:15:47;;;;;;;;;;;16.70;99.90;;;;;;5034787;28;20396;-78
2023/11/12 13:18:13;;;;;;;;;;;16.60;99.90;;;;;;5035637;28;19917;-70
2023/11/12 13:20:38;;;;;;;;;;;16.60;99.90;;;;;;5034781;28;19920;-70
2023/11/12 13:23:04;;;;;;;;;;;16.60;99.90;;;;;;5034573;28;19960;-70
2023/11/12 13:25:30;;;;;;;;;;;16.70;99.90;;;;;;5034961;28;19942;-78
2023/11/12 13:27:55;;;;;;;;;;;16.60;99.90;;;;;;5033588;28;19909;-78
2023/11/12 13:30:21;;;;;;;;;;;16.60;99.90;;;;;;5034855;28;19920;-70
2023/11/12 13:32:48;;;;;;;;;;;16.50;99.90;;;;;;5034682;28;19928;-70
2023/11/12 13:35:13;;;;;;;;;;;16.50;99.90;;;;;;5034651;28;19921;-79
2023/11/12 13:37:40;;;;;;;;;;;16.40;99.90;;;;;;5034847;28;19909;-78
2023/11/12 13:40:09;;;;;;;;;;;16.30;99.90;;;;;;5033651;28;19996;-79
2023/11/12 13:42:35;;;;;;;;;;;16.30;99.90;;;;;;5034911;28;19909;-79
2023/11/12 13:45:04;;;;;;;;;;;16.30;99.90;;;;;;5034636;28;19949;-71
2023/11/12 13:47:29;;;;;;;;;;;16.30;99.90;;;;;;5034804;28;19924;-71
2023/11/12 13:49:55;;;;;;;;;;;16.20;99.90;;;;;;5034672;28;20000;-71
2023/11/12 13:52:22;;;;;;;;;;;16.20;99.90;;;;;;5034684;28;19955;-79
2023/11/12 13:54:48;;;;;;;;;;;16.20;99.90;;;;;;5026433;28;19928;-78
2023/11/12 13:57:13;;;;;;;;;;;16.20;99.90;;;;;;5019003;28;20301;-71
2023/11/12 13:59:42;;;;;;;;;;;16.10;99.90;;;;;;5014588;28;19917;-71
2023/11/12 14:02:08;;;;;;;;;;;16.00;99.90;;;;;;5030077;28;19963;-71
2023/11/12 14:04:34;;;;;;;;;;;15.90;99.90;;;;;;5034284;28;19909;-79
2023/11/12 14:06:59;;;;;;;;;;;15.90;99.90;;;;;;5034357;28;20399;-79
2023/11/12 14:09:25;;;;;;;;;;;15.90;99.90;;;;;;5034269;28;19909;-76
2023/11/12 14:11:51;;;;;;;;;;;15.90;99.90;;;;;;5033410;28;19913;-77